N762FE PANC-PAMC
Flight info
| Callsign | N762FE |
|---|---|
| Flight time | 1h 38m |
| Altitude | 8500 |
| Route | TED MCG |
| Aircraft | C208/L-SDFGR/C |
Departure
| Time | 2026-04-23 14:07 |
|---|---|
| Airport | Ted Stevens Anchorage International Airport (PANC) |
Arrival
| Time | 2026-04-23 15:45 |
|---|---|
| Airport | McGrath Airport (PAMC) |
| Time | Latitude | Longitude | Altitude | Speed | Heading |
|---|---|---|---|---|---|
| 2026-04-23 13:30 | 61.19094 | -149.99985 | 152 ft | 0 kts | 75° |
| 2026-04-23 13:55 | 61.19094 | -149.99983 | 152 ft | 0 kts | 74° |
| 2026-04-23 13:55 | 61.19094 | -149.99985 | 152 ft | 0 kts | 74° |
| 2026-04-23 13:56 | 61.19092 | -149.99999 | 152 ft | 2 kts | 74° |
| 2026-04-23 13:56 | 61.19088 | -150.00024 | 152 ft | 2 kts | 74° |
| 2026-04-23 13:56 | 61.19084 | -150.00055 | 152 ft | 2 kts | 75° |
| 2026-04-23 13:56 | 61.19082 | -150.00066 | 152 ft | 0 kts | 49° |
| 2026-04-23 13:57 | 61.19078 | -150.00070 | 152 ft | 0 kts | 351° |
| 2026-04-23 13:57 | 61.19075 | -150.00069 | 152 ft | 0 kts | 345° |
| 2026-04-23 14:01 | 61.19080 | -150.00072 | 152 ft | 4 kts | 346° |
| 2026-04-23 14:01 | 61.19127 | -150.00102 | 152 ft | 8 kts | 334° |
| 2026-04-23 14:02 | 61.19136 | -150.00159 | 152 ft | 7 kts | 294° |
| 2026-04-23 14:02 | 61.19153 | -150.00305 | 152 ft | 15 kts | 246° |
| 2026-04-23 14:02 | 61.19130 | -150.00491 | 152 ft | 10 kts | 254° |
| 2026-04-23 14:02 | 61.19104 | -150.00655 | 152 ft | 13 kts | 256° |
| 2026-04-23 14:03 | 61.19175 | -150.00662 | 152 ft | 13 kts | 338° |
| 2026-04-23 14:03 | 61.19281 | -150.00729 | 152 ft | 18 kts | 346° |
| 2026-04-23 14:03 | 61.19416 | -150.00801 | 152 ft | 21 kts | 343° |
| 2026-04-23 14:03 | 61.19569 | -150.00890 | 152 ft | 23 kts | 345° |
| 2026-04-23 14:04 | 61.19715 | -150.00970 | 152 ft | 23 kts | 345° |
| 2026-04-23 14:04 | 61.19865 | -150.01054 | 152 ft | 22 kts | 343° |
| 2026-04-23 14:04 | 61.19984 | -150.01143 | 152 ft | 14 kts | 289° |
| 2026-04-23 14:04 | 61.19970 | -150.01280 | 152 ft | 0 kts | 254° |
| 2026-04-23 14:05 | 61.19969 | -150.01286 | 152 ft | 2 kts | 254° |
| 2026-04-23 14:05 | 61.19947 | -150.01402 | 152 ft | 12 kts | 217° |
| 2026-04-23 14:06 | 61.19881 | -150.01402 | 152 ft | 8 kts | 165° |
| 2026-04-23 14:06 | 61.19784 | -150.01346 | 152 ft | 34 kts | 162° |
| 2026-04-23 14:06 | 61.19311 | -150.01038 | 226 ft | 97 kts | 161° |
| 2026-04-23 14:06 | 61.18540 | -150.00560 | 471 ft | 124 kts | 161° |
| 2026-04-23 14:07 | 61.17757 | -150.00003 | 902 ft | 126 kts | 160° |
| 2026-04-23 14:07 | 61.16103 | -150.00107 | 1778 ft | 135 kts | 200° |
| 2026-04-23 14:07 | 61.15434 | -150.01518 | 2177 ft | 146 kts | 238° |
| 2026-04-23 14:08 | 61.15257 | -150.03575 | 2572 ft | 155 kts | 272° |
| 2026-04-23 14:08 | 61.15381 | -150.05602 | 2942 ft | 151 kts | 256° |
| 2026-04-23 14:08 | 61.14843 | -150.07173 | 3346 ft | 134 kts | 200° |
| 2026-04-23 14:08 | 61.13972 | -150.07214 | 3767 ft | 124 kts | 155° |
| 2026-04-23 14:09 | 61.13165 | -150.06540 | 4087 ft | 130 kts | 161° |
| 2026-04-23 14:09 | 61.12382 | -150.06476 | 4261 ft | 142 kts | 180° |
| 2026-04-23 14:09 | 61.11916 | -150.06555 | 4327 ft | 146 kts | 177° |
| 2026-04-23 14:09 | 61.10934 | -150.06525 | 4456 ft | 153 kts | 175° |
| 2026-04-23 14:10 | 61.09893 | -150.06821 | 4575 ft | 162 kts | 194° |
| 2026-04-23 14:10 | 61.08968 | -150.08261 | 4691 ft | 173 kts | 225° |
| 2026-04-23 14:10 | 61.08151 | -150.10115 | 4817 ft | 170 kts | 211° |
| 2026-04-23 14:10 | 61.07170 | -150.11481 | 4946 ft | 171 kts | 211° |
| 2026-04-23 14:11 | 61.06364 | -150.13356 | 5055 ft | 179 kts | 237° |
| 2026-04-23 14:11 | 61.06139 | -150.15951 | 5165 ft | 190 kts | 275° |
| 2026-04-23 14:11 | 61.06801 | -150.18285 | 5293 ft | 193 kts | 316° |
| 2026-04-23 14:11 | 61.07724 | -150.20300 | 5423 ft | 192 kts | 302° |
| 2026-04-23 14:12 | 61.08359 | -150.22755 | 5552 ft | 192 kts | 296° |
| 2026-04-23 14:12 | 61.09191 | -150.24960 | 5667 ft | 195 kts | 322° |
| 2026-04-23 14:12 | 61.10387 | -150.26218 | 5794 ft | 193 kts | 338° |
| 2026-04-23 14:12 | 61.11517 | -150.27747 | 5918 ft | 194 kts | 319° |
| 2026-04-23 14:13 | 61.12600 | -150.29480 | 6043 ft | 195 kts | 329° |
| 2026-04-23 14:13 | 61.13770 | -150.30847 | 6167 ft | 195 kts | 328° |
| 2026-04-23 14:13 | 61.14870 | -150.32520 | 6294 ft | 194 kts | 325° |
| 2026-04-23 14:13 | 61.16024 | -150.33936 | 6410 ft | 193 kts | 332° |
| 2026-04-23 14:14 | 61.17138 | -150.35486 | 6536 ft | 192 kts | 325° |
| 2026-04-23 14:14 | 61.18267 | -150.36960 | 6659 ft | 190 kts | 333° |
| 2026-04-23 14:14 | 61.19231 | -150.38209 | 6764 ft | 190 kts | 326° |
| 2026-04-23 14:14 | 61.20213 | -150.39624 | 6874 ft | 190 kts | 330° |
| 2026-04-23 14:15 | 61.21337 | -150.40996 | 6997 ft | 190 kts | 327° |
| 2026-04-23 14:15 | 61.22422 | -150.42595 | 7124 ft | 190 kts | 328° |
| 2026-04-23 14:15 | 61.23572 | -150.43980 | 7246 ft | 190 kts | 330° |
| 2026-04-23 14:15 | 61.24657 | -150.45557 | 7372 ft | 190 kts | 326° |
| 2026-04-23 14:16 | 61.25812 | -150.46988 | 7499 ft | 190 kts | 331° |
| 2026-04-23 14:16 | 61.26895 | -150.48549 | 7623 ft | 191 kts | 326° |
| 2026-04-23 14:16 | 61.28027 | -150.50006 | 7742 ft | 191 kts | 332° |
| 2026-04-23 14:16 | 61.29139 | -150.51526 | 7871 ft | 192 kts | 325° |
| 2026-04-23 14:17 | 61.30265 | -150.53021 | 7997 ft | 192 kts | 333° |
| 2026-04-23 14:17 | 61.31408 | -150.54536 | 8124 ft | 193 kts | 325° |
| 2026-04-23 14:17 | 61.32533 | -150.56045 | 8251 ft | 193 kts | 332° |
| 2026-04-23 14:17 | 61.33681 | -150.57530 | 8376 ft | 193 kts | 325° |
| 2026-04-23 14:18 | 61.34795 | -150.59111 | 8467 ft | 195 kts | 331° |
| 2026-04-23 14:18 | 61.35986 | -150.60614 | 8480 ft | 201 kts | 327° |
| 2026-04-23 14:18 | 61.37185 | -150.62118 | 8478 ft | 203 kts | 340° |
| 2026-04-23 14:18 | 61.38555 | -150.62605 | 8479 ft | 198 kts | 9° |
| 2026-04-23 14:19 | 61.39836 | -150.62021 | 8482 ft | 197 kts | 18° |
| 2026-04-23 14:19 | 61.41219 | -150.62174 | 8481 ft | 206 kts | 340° |
| 2026-04-23 14:19 | 61.42155 | -150.64339 | 8497 ft | 204 kts | 289° |
| 2026-04-23 14:19 | 61.42479 | -150.66595 | 8489 ft | 204 kts | 281° |
| 2026-04-23 14:20 | 61.43058 | -150.69611 | 8477 ft | 208 kts | 300° |
| 2026-04-23 14:20 | 61.43624 | -150.71014 | 8477 ft | 208 kts | 318° |
| 2026-04-23 14:20 | 61.44778 | -150.73163 | 8482 ft | 208 kts | 309° |
| 2026-04-23 14:20 | 61.45657 | -150.75560 | 8481 ft | 208 kts | 309° |
| 2026-04-23 14:21 | 61.46666 | -150.77728 | 8480 ft | 207 kts | 315° |
| 2026-04-23 14:21 | 61.47633 | -150.79999 | 8482 ft | 207 kts | 309° |
| 2026-04-23 14:21 | 61.48594 | -150.82251 | 8480 ft | 207 kts | 316° |
| 2026-04-23 14:21 | 61.49613 | -150.84354 | 8481 ft | 206 kts | 312° |
| 2026-04-23 14:22 | 61.50597 | -150.86559 | 8478 ft | 206 kts | 320° |
| 2026-04-23 14:22 | 61.51783 | -150.88194 | 8478 ft | 204 kts | 332° |
| 2026-04-23 14:22 | 61.52872 | -150.90112 | 8480 ft | 206 kts | 310° |
| 2026-04-23 14:22 | 61.53797 | -150.92447 | 8476 ft | 206 kts | 314° |
| 2026-04-23 14:23 | 61.54859 | -150.94444 | 8477 ft | 206 kts | 317° |
| 2026-04-23 14:23 | 61.55788 | -150.96742 | 8478 ft | 207 kts | 307° |
| 2026-04-23 14:23 | 61.56741 | -150.99026 | 8476 ft | 207 kts | 316° |
| 2026-04-23 14:23 | 61.57717 | -151.01248 | 8479 ft | 207 kts | 307° |
| 2026-04-23 14:24 | 61.58591 | -151.03635 | 8481 ft | 207 kts | 311° |
| 2026-04-23 14:24 | 61.59574 | -151.05853 | 8484 ft | 207 kts | 312° |
| 2026-04-23 14:24 | 61.60441 | -151.08263 | 8487 ft | 206 kts | 307° |
| 2026-04-23 14:24 | 61.61377 | -151.10565 | 8489 ft | 205 kts | 315° |
| 2026-04-23 14:25 | 61.62288 | -151.12885 | 8494 ft | 206 kts | 307° |
| 2026-04-23 14:25 | 61.63157 | -151.15280 | 8494 ft | 204 kts | 313° |
| 2026-04-23 14:25 | 61.64101 | -151.17500 | 8498 ft | 204 kts | 310° |
| 2026-04-23 14:25 | 61.64925 | -151.19888 | 8501 ft | 203 kts | 309° |
| 2026-04-23 14:26 | 61.65848 | -151.22125 | 8503 ft | 201 kts | 316° |
| 2026-04-23 14:26 | 61.66721 | -151.24472 | 8507 ft | 202 kts | 307° |
| 2026-04-23 14:26 | 61.67580 | -151.26794 | 8508 ft | 201 kts | 315° |
| 2026-04-23 14:26 | 61.68500 | -151.29018 | 8512 ft | 202 kts | 309° |
| 2026-04-23 14:27 | 61.69325 | -151.31429 | 8514 ft | 202 kts | 311° |
| 2026-04-23 14:27 | 61.70262 | -151.33656 | 8517 ft | 201 kts | 314° |
| 2026-04-23 14:27 | 61.71096 | -151.36018 | 8521 ft | 202 kts | 308° |
| 2026-04-23 14:27 | 61.71983 | -151.38325 | 8522 ft | 201 kts | 316° |
| 2026-04-23 14:28 | 61.72874 | -151.40579 | 8527 ft | 202 kts | 308° |
| 2026-04-23 14:28 | 61.73707 | -151.42982 | 8528 ft | 201 kts | 313° |
| 2026-04-23 14:28 | 61.74636 | -151.45186 | 8532 ft | 201 kts | 312° |
| 2026-04-23 14:28 | 61.75453 | -151.47577 | 8535 ft | 202 kts | 309° |
| 2026-04-23 14:29 | 61.76359 | -151.49849 | 8538 ft | 201 kts | 316° |
| 2026-04-23 14:29 | 61.77229 | -151.52171 | 8543 ft | 202 kts | 307° |
| 2026-04-23 14:29 | 61.78085 | -151.54506 | 8541 ft | 201 kts | 318° |
| 2026-04-23 14:29 | 61.79147 | -151.56401 | 8548 ft | 199 kts | 325° |
| 2026-04-23 14:30 | 61.80153 | -151.58418 | 8551 ft | 201 kts | 314° |
| 2026-04-23 14:30 | 61.80978 | -151.60847 | 8555 ft | 202 kts | 307° |
| 2026-04-23 14:30 | 61.81863 | -151.63141 | 8556 ft | 201 kts | 316° |
| 2026-04-23 14:30 | 61.82748 | -151.65251 | 8560 ft | 202 kts | 311° |
| 2026-04-23 14:31 | 61.83388 | -151.67091 | 8561 ft | 202 kts | 306° |
| 2026-04-23 14:31 | 61.84164 | -151.69469 | 8562 ft | 202 kts | 308° |
| 2026-04-23 14:31 | 61.85041 | -151.71800 | 8565 ft | 201 kts | 312° |
| 2026-04-23 14:31 | 61.85916 | -151.74118 | 8569 ft | 202 kts | 309° |
| 2026-04-23 14:32 | 61.86754 | -151.76504 | 8571 ft | 202 kts | 309° |
| 2026-04-23 14:32 | 61.87612 | -151.78857 | 8574 ft | 202 kts | 311° |
| 2026-04-23 14:32 | 61.88494 | -151.81197 | 8577 ft | 202 kts | 310° |
| 2026-04-23 14:32 | 61.89111 | -151.82875 | 8579 ft | 202 kts | 310° |
| 2026-04-23 14:33 | 61.89970 | -151.85240 | 8582 ft | 202 kts | 310° |
| 2026-04-23 14:33 | 61.90847 | -151.87607 | 8585 ft | 202 kts | 310° |
| 2026-04-23 14:33 | 61.91715 | -151.89941 | 8588 ft | 202 kts | 310° |
| 2026-04-23 14:33 | 61.92554 | -151.92349 | 8591 ft | 202 kts | 307° |
| 2026-04-23 14:34 | 61.93332 | -151.94853 | 8594 ft | 203 kts | 304° |
| 2026-04-23 14:34 | 61.94107 | -151.97356 | 8596 ft | 202 kts | 306° |
| 2026-04-23 14:34 | 61.94898 | -151.99861 | 8599 ft | 202 kts | 305° |
| 2026-04-23 14:34 | 61.95654 | -152.02364 | 8602 ft | 203 kts | 304° |
| 2026-04-23 14:35 | 61.96412 | -152.04913 | 8605 ft | 203 kts | 304° |
| 2026-04-23 14:35 | 61.97174 | -152.07407 | 8608 ft | 203 kts | 305° |
| 2026-04-23 14:35 | 61.97944 | -152.09956 | 8611 ft | 203 kts | 304° |
| 2026-04-23 14:35 | 61.98701 | -152.12514 | 8613 ft | 203 kts | 304° |
| 2026-04-23 14:36 | 61.99459 | -152.15039 | 8616 ft | 203 kts | 305° |
| 2026-04-23 14:36 | 62.00221 | -152.17567 | 8619 ft | 203 kts | 304° |
| 2026-04-23 14:36 | 62.00977 | -152.20114 | 8622 ft | 203 kts | 304° |
| 2026-04-23 14:36 | 62.01734 | -152.22664 | 8624 ft | 203 kts | 304° |
| 2026-04-23 14:37 | 62.02506 | -152.25240 | 8627 ft | 203 kts | 304° |
| 2026-04-23 14:37 | 62.03257 | -152.27766 | 8630 ft | 203 kts | 304° |
| 2026-04-23 14:37 | 62.04019 | -152.30339 | 8633 ft | 203 kts | 304° |
| 2026-04-23 14:37 | 62.04776 | -152.32887 | 8635 ft | 203 kts | 304° |
| 2026-04-23 14:38 | 62.05524 | -152.35405 | 8638 ft | 203 kts | 304° |
| 2026-04-23 14:38 | 62.06285 | -152.37979 | 8641 ft | 203 kts | 304° |
| 2026-04-23 14:38 | 62.07035 | -152.40517 | 8643 ft | 203 kts | 304° |
| 2026-04-23 14:38 | 62.07797 | -152.43091 | 8639 ft | 203 kts | 304° |
| 2026-04-23 14:39 | 62.08533 | -152.45639 | 8633 ft | 204 kts | 301° |
| 2026-04-23 14:39 | 62.09115 | -152.48438 | 8627 ft | 205 kts | 288° |
| 2026-04-23 14:39 | 62.09346 | -152.51463 | 8619 ft | 205 kts | 270° |
| 2026-04-23 14:39 | 62.09137 | -152.54445 | 8611 ft | 203 kts | 249° |
| 2026-04-23 14:40 | 62.08485 | -152.57097 | 8603 ft | 199 kts | 228° |
| 2026-04-23 14:40 | 62.07488 | -152.59026 | 8598 ft | 193 kts | 207° |
| 2026-04-23 14:40 | 62.06300 | -152.60428 | 8595 ft | 193 kts | 207° |
| 2026-04-23 14:40 | 62.05232 | -152.62169 | 8598 ft | 194 kts | 214° |
| 2026-04-23 14:41 | 62.04130 | -152.63852 | 8601 ft | 192 kts | 207° |
| 2026-04-23 14:41 | 62.03150 | -152.65073 | 8605 ft | 192 kts | 204° |
| 2026-04-23 14:41 | 62.02234 | -152.66275 | 8608 ft | 192 kts | 207° |
| 2026-04-23 14:41 | 62.01121 | -152.67865 | 8614 ft | 192 kts | 208° |
| 2026-04-23 14:42 | 62.00000 | -152.69405 | 8619 ft | 192 kts | 206° |
| 2026-04-23 14:42 | 61.98871 | -152.70908 | 8623 ft | 192 kts | 206° |
| 2026-04-23 14:42 | 61.97734 | -152.72464 | 8628 ft | 192 kts | 207° |
| 2026-04-23 14:42 | 61.96703 | -152.74161 | 8789 ft | 190 kts | 226° |
| 2026-04-23 14:43 | 61.96518 | -152.76895 | 8821 ft | 198 kts | 297° |
| 2026-04-23 14:43 | 61.97491 | -152.78877 | 8830 ft | 195 kts | 332° |
| 2026-04-23 14:43 | 61.98697 | -152.80333 | 8824 ft | 198 kts | 333° |
| 2026-04-23 14:43 | 61.99897 | -152.81743 | 8868 ft | 194 kts | 338° |
| 2026-04-23 14:44 | 62.01091 | -152.82960 | 9175 ft | 181 kts | 338° |
| 2026-04-23 14:44 | 62.02196 | -152.84241 | 9366 ft | 181 kts | 334° |
| 2026-04-23 14:44 | 62.03297 | -152.85539 | 9553 ft | 180 kts | 336° |
| 2026-04-23 14:44 | 62.04445 | -152.86792 | 9347 ft | 202 kts | 336° |
| 2026-04-23 14:45 | 62.05773 | -152.88246 | 9111 ft | 208 kts | 337° |
| 2026-04-23 14:45 | 62.07115 | -152.89600 | 8886 ft | 212 kts | 339° |
| 2026-04-23 14:45 | 62.08417 | -152.91034 | 8888 ft | 207 kts | 333° |
| 2026-04-23 14:45 | 62.09610 | -152.92879 | 8703 ft | 213 kts | 321° |
| 2026-04-23 14:46 | 62.10592 | -152.95216 | 8632 ft | 211 kts | 306° |
| 2026-04-23 14:46 | 62.11335 | -152.97842 | 8722 ft | 204 kts | 303° |
| 2026-04-23 14:46 | 62.12083 | -152.99982 | 9141 ft | 188 kts | 314° |
| 2026-04-23 14:46 | 62.13091 | -153.01950 | 8917 ft | 203 kts | 325° |
| 2026-04-23 14:47 | 62.14117 | -153.03806 | 9220 ft | 192 kts | 318° |
| 2026-04-23 14:47 | 62.14956 | -153.06119 | 9268 ft | 197 kts | 302° |
| 2026-04-23 14:47 | 62.15688 | -153.08653 | 9280 ft | 201 kts | 305° |
| 2026-04-23 14:47 | 62.16473 | -153.11165 | 9287 ft | 204 kts | 306° |
| 2026-04-23 14:48 | 62.17262 | -153.13753 | 9291 ft | 206 kts | 304° |
| 2026-04-23 14:48 | 62.18022 | -153.16286 | 9457 ft | 198 kts | 305° |
| 2026-04-23 14:48 | 62.18745 | -153.18687 | 9767 ft | 188 kts | 304° |
| 2026-04-23 14:48 | 62.19436 | -153.21057 | 10005 ft | 185 kts | 303° |
| 2026-04-23 14:49 | 62.20120 | -153.23379 | 10211 ft | 185 kts | 304° |
| 2026-04-23 14:49 | 62.20956 | -153.25501 | 10273 ft | 192 kts | 320° |
| 2026-04-23 14:49 | 62.22171 | -153.26787 | 10239 ft | 187 kts | 358° |
| 2026-04-23 14:49 | 62.23424 | -153.26921 | 10497 ft | 176 kts | 6° |
| 2026-04-23 14:50 | 62.24663 | -153.27223 | 10670 ft | 180 kts | 353° |
| 2026-04-23 14:50 | 62.25853 | -153.28311 | 10787 ft | 189 kts | 331° |
| 2026-04-23 14:50 | 62.26842 | -153.30322 | 10795 ft | 200 kts | 308° |
| 2026-04-23 14:50 | 62.27703 | -153.32684 | 10755 ft | 198 kts | 316° |
| 2026-04-23 14:51 | 62.28584 | -153.34990 | 10654 ft | 200 kts | 305° |
| 2026-04-23 14:51 | 62.29265 | -153.37692 | 10465 ft | 204 kts | 296° |
| 2026-04-23 14:51 | 62.29950 | -153.40370 | 10270 ft | 207 kts | 302° |
| 2026-04-23 14:51 | 62.30704 | -153.43076 | 10079 ft | 207 kts | 301° |
| 2026-04-23 14:52 | 62.31400 | -153.45795 | 9894 ft | 207 kts | 300° |
| 2026-04-23 14:52 | 62.32099 | -153.48538 | 9707 ft | 205 kts | 301° |
| 2026-04-23 14:52 | 62.32788 | -153.51178 | 9669 ft | 195 kts | 301° |
| 2026-04-23 14:52 | 62.33406 | -153.53636 | 9839 ft | 182 kts | 298° |
| 2026-04-23 14:53 | 62.33984 | -153.56079 | 9863 ft | 181 kts | 298° |
| 2026-04-23 14:53 | 62.34569 | -153.58490 | 9869 ft | 181 kts | 299° |
| 2026-04-23 14:53 | 62.35160 | -153.60933 | 9872 ft | 181 kts | 299° |
| 2026-04-23 14:53 | 62.35735 | -153.63327 | 9872 ft | 181 kts | 299° |
| 2026-04-23 14:54 | 62.36322 | -153.65761 | 9871 ft | 180 kts | 298° |
| 2026-04-23 14:54 | 62.36889 | -153.68120 | 9869 ft | 178 kts | 298° |
| 2026-04-23 14:54 | 62.37466 | -153.70544 | 9868 ft | 176 kts | 296° |
| 2026-04-23 14:54 | 62.38106 | -153.72778 | 9867 ft | 173 kts | 315° |
| 2026-04-23 14:55 | 62.38938 | -153.74657 | 9866 ft | 171 kts | 313° |
| 2026-04-23 14:55 | 62.39621 | -153.76808 | 9867 ft | 171 kts | 303° |
| 2026-04-23 14:55 | 62.40334 | -153.78854 | 9866 ft | 170 kts | 310° |
| 2026-04-23 14:55 | 62.40997 | -153.80962 | 9860 ft | 170 kts | 304° |
| 2026-04-23 14:56 | 62.41688 | -153.83075 | 9928 ft | 162 kts | 308° |
| 2026-04-23 14:56 | 62.42279 | -153.85017 | 10166 ft | 147 kts | 305° |
| 2026-04-23 14:56 | 62.42836 | -153.86787 | 10323 ft | 140 kts | 303° |
| 2026-04-23 14:56 | 62.43388 | -153.88550 | 10408 ft | 139 kts | 306° |
| 2026-04-23 14:57 | 62.43919 | -153.90294 | 10486 ft | 137 kts | 309° |
| 2026-04-23 14:57 | 62.44461 | -153.92046 | 10370 ft | 156 kts | 306° |
| 2026-04-23 14:57 | 62.45244 | -153.94278 | 9379 ft | 209 kts | 311° |
| 2026-04-23 14:57 | 62.46080 | -153.96591 | 9478 ft | 187 kts | 311° |
| 2026-04-23 14:58 | 62.46981 | -153.98645 | 9220 ft | 186 kts | 329° |
| 2026-04-23 14:58 | 62.48105 | -153.99915 | 9215 ft | 170 kts | 340° |
| 2026-04-23 14:58 | 62.49043 | -154.01123 | 9510 ft | 153 kts | 325° |
| 2026-04-23 14:58 | 62.49699 | -154.02936 | 9558 ft | 155 kts | 301° |
| 2026-04-23 14:59 | 62.50339 | -154.04840 | 9566 ft | 154 kts | 312° |
| 2026-04-23 14:59 | 62.50938 | -154.06781 | 9563 ft | 157 kts | 304° |
| 2026-04-23 14:59 | 62.51599 | -154.08746 | 9467 ft | 163 kts | 308° |
| 2026-04-23 14:59 | 62.52287 | -154.10762 | 9361 ft | 165 kts | 316° |
| 2026-04-23 15:00 | 62.53070 | -154.12646 | 9266 ft | 166 kts | 311° |
| 2026-04-23 15:00 | 62.53767 | -154.14659 | 9175 ft | 166 kts | 313° |
| 2026-04-23 15:00 | 62.54513 | -154.16591 | 9081 ft | 164 kts | 311° |
| 2026-04-23 15:00 | 62.55195 | -154.18564 | 8986 ft | 163 kts | 311° |
| 2026-04-23 15:01 | 62.55905 | -154.20503 | 8884 ft | 161 kts | 311° |
| 2026-04-23 15:01 | 62.56583 | -154.22464 | 8752 ft | 162 kts | 310° |
| 2026-04-23 15:01 | 62.57287 | -154.24442 | 8574 ft | 165 kts | 312° |
| 2026-04-23 15:01 | 62.57989 | -154.26424 | 8516 ft | 157 kts | 311° |
| 2026-04-23 15:02 | 62.58608 | -154.28250 | 8627 ft | 146 kts | 311° |
| 2026-04-23 15:02 | 62.59206 | -154.30045 | 8628 ft | 144 kts | 310° |
| 2026-04-23 15:02 | 62.59776 | -154.31844 | 8627 ft | 143 kts | 309° |
| 2026-04-23 15:02 | 62.60337 | -154.33637 | 8627 ft | 142 kts | 309° |
| 2026-04-23 15:03 | 62.60871 | -154.35400 | 8700 ft | 136 kts | 307° |
| 2026-04-23 15:03 | 62.61373 | -154.37137 | 8711 ft | 135 kts | 307° |
| 2026-04-23 15:03 | 62.61881 | -154.38882 | 8715 ft | 135 kts | 307° |
| 2026-04-23 15:03 | 62.62384 | -154.40619 | 8717 ft | 136 kts | 307° |
| 2026-04-23 15:04 | 62.62881 | -154.42360 | 8788 ft | 130 kts | 307° |
| 2026-04-23 15:04 | 62.63354 | -154.44063 | 8750 ft | 136 kts | 306° |
| 2026-04-23 15:04 | 62.63892 | -154.45901 | 8589 ft | 148 kts | 310° |
| 2026-04-23 15:04 | 62.64701 | -154.47014 | 8441 ft | 133 kts | 13° |
| 2026-04-23 15:05 | 62.65434 | -154.46042 | 8325 ft | 124 kts | 55° |
| 2026-04-23 15:05 | 62.65981 | -154.44518 | 8201 ft | 128 kts | 53° |
| 2026-04-23 15:05 | 62.66678 | -154.43239 | 8085 ft | 133 kts | 36° |
| 2026-04-23 15:05 | 62.67581 | -154.42561 | 7933 ft | 142 kts | 14° |
| 2026-04-23 15:06 | 62.68593 | -154.42697 | 7790 ft | 151 kts | 349° |
| 2026-04-23 15:06 | 62.69441 | -154.44119 | 7653 ft | 162 kts | 304° |
| 2026-04-23 15:06 | 62.69639 | -154.46568 | 7527 ft | 166 kts | 268° |
| 2026-04-23 15:06 | 62.69692 | -154.49085 | 7389 ft | 165 kts | 288° |
| 2026-04-23 15:07 | 62.70302 | -154.51102 | 7256 ft | 155 kts | 332° |
| 2026-04-23 15:07 | 62.71285 | -154.51533 | 7131 ft | 142 kts | 18° |
| 2026-04-23 15:07 | 62.72141 | -154.50503 | 7007 ft | 137 kts | 43° |
| 2026-04-23 15:07 | 62.72870 | -154.49130 | 6884 ft | 138 kts | 42° |
| 2026-04-23 15:08 | 62.73674 | -154.47945 | 6765 ft | 140 kts | 31° |
| 2026-04-23 15:08 | 62.74604 | -154.47203 | 6650 ft | 143 kts | 17° |
| 2026-04-23 15:08 | 62.75606 | -154.47069 | 6539 ft | 147 kts | 0° |
| 2026-04-23 15:09 | 62.77618 | -154.48285 | 6328 ft | 151 kts | 343° |
| 2026-04-23 15:09 | 62.78556 | -154.49383 | 6227 ft | 154 kts | 330° |
| 2026-04-23 15:09 | 62.79372 | -154.50998 | 6128 ft | 157 kts | 315° |
| 2026-04-23 15:09 | 62.79967 | -154.53032 | 6033 ft | 160 kts | 299° |
| 2026-04-23 15:10 | 62.80217 | -154.54570 | 5970 ft | 161 kts | 288° |
| 2026-04-23 15:10 | 62.80323 | -154.57837 | 5848 ft | 163 kts | 267° |
| 2026-04-23 15:10 | 62.80389 | -154.60288 | 5744 ft | 158 kts | 297° |
| 2026-04-23 15:10 | 62.81195 | -154.61585 | 5625 ft | 144 kts | 4° |
| 2026-04-23 15:11 | 62.81952 | -154.60442 | 5506 ft | 138 kts | 72° |
| 2026-04-23 15:11 | 62.81899 | -154.58324 | 5412 ft | 140 kts | 91° |
| 2026-04-23 15:11 | 62.82029 | -154.56223 | 5329 ft | 138 kts | 69° |
| 2026-04-23 15:11 | 62.82503 | -154.54407 | 5250 ft | 138 kts | 50° |
| 2026-04-23 15:12 | 62.83232 | -154.53046 | 5172 ft | 139 kts | 32° |
| 2026-04-23 15:12 | 62.84144 | -154.52254 | 5095 ft | 140 kts | 15° |
| 2026-04-23 15:12 | 62.85130 | -154.52130 | 5019 ft | 142 kts | 358° |
| 2026-04-23 15:12 | 62.86100 | -154.52678 | 4945 ft | 145 kts | 341° |
| 2026-04-23 15:13 | 62.86963 | -154.53850 | 4874 ft | 148 kts | 324° |
| 2026-04-23 15:13 | 62.87648 | -154.55551 | 4806 ft | 150 kts | 307° |
| 2026-04-23 15:13 | 62.88034 | -154.57541 | 5027 ft | 136 kts | 286° |
| 2026-04-23 15:13 | 62.88025 | -154.59701 | 5092 ft | 149 kts | 259° |
| 2026-04-23 15:14 | 62.87588 | -154.61856 | 5125 ft | 159 kts | 235° |
| 2026-04-23 15:14 | 62.86787 | -154.63597 | 5142 ft | 164 kts | 213° |
| 2026-04-23 15:14 | 62.85736 | -154.64661 | 5152 ft | 166 kts | 193° |
| 2026-04-23 15:14 | 62.84586 | -154.64918 | 5158 ft | 165 kts | 173° |
| 2026-04-23 15:15 | 62.83475 | -154.64380 | 5162 ft | 163 kts | 155° |
| 2026-04-23 15:15 | 62.82495 | -154.63115 | 5165 ft | 160 kts | 136° |
| 2026-04-23 15:15 | 62.81770 | -154.61322 | 5168 ft | 157 kts | 119° |
| 2026-04-23 15:15 | 62.81336 | -154.59155 | 5169 ft | 154 kts | 101° |
| 2026-04-23 15:16 | 62.81361 | -154.56844 | 5172 ft | 150 kts | 69° |
| 2026-04-23 15:16 | 62.81881 | -154.54895 | 5172 ft | 150 kts | 51° |
| 2026-04-23 15:16 | 62.82646 | -154.53296 | 5172 ft | 150 kts | 39° |
| 2026-04-23 15:16 | 62.83535 | -154.52118 | 5172 ft | 151 kts | 26° |
| 2026-04-23 15:17 | 62.84555 | -154.51465 | 5172 ft | 152 kts | 11° |
| 2026-04-23 15:17 | 62.85607 | -154.51474 | 5172 ft | 154 kts | 355° |
| 2026-04-23 15:17 | 62.86658 | -154.52194 | 5186 ft | 161 kts | 339° |
| 2026-04-23 15:17 | 62.87626 | -154.53665 | 5207 ft | 173 kts | 321° |
| 2026-04-23 15:18 | 62.88404 | -154.55806 | 5230 ft | 185 kts | 304° |
| 2026-04-23 15:18 | 62.88916 | -154.58499 | 5243 ft | 194 kts | 282° |
| 2026-04-23 15:18 | 62.88676 | -154.61398 | 5272 ft | 197 kts | 243° |
| 2026-04-23 15:18 | 62.87924 | -154.63956 | 5310 ft | 198 kts | 230° |
| 2026-04-23 15:19 | 62.87082 | -154.66367 | 5321 ft | 200 kts | 230° |
| 2026-04-23 15:19 | 62.86215 | -154.68730 | 5349 ft | 199 kts | 226° |
| 2026-04-23 15:19 | 62.85254 | -154.70866 | 5468 ft | 193 kts | 219° |
| 2026-04-23 15:19 | 62.84181 | -154.72697 | 5398 ft | 198 kts | 210° |
| 2026-04-23 15:20 | 62.82992 | -154.74152 | 5404 ft | 196 kts | 200° |
| 2026-04-23 15:20 | 62.81728 | -154.75160 | 5513 ft | 189 kts | 191° |
| 2026-04-23 15:20 | 62.80423 | -154.75723 | 5536 ft | 187 kts | 182° |
| 2026-04-23 15:20 | 62.79117 | -154.75867 | 5475 ft | 190 kts | 174° |
| 2026-04-23 15:21 | 62.77822 | -154.75565 | 5432 ft | 190 kts | 164° |
| 2026-04-23 15:21 | 62.76577 | -154.74812 | 5469 ft | 186 kts | 154° |
| 2026-04-23 15:21 | 62.75422 | -154.73640 | 5549 ft | 179 kts | 145° |
| 2026-04-23 15:21 | 62.74380 | -154.72128 | 5610 ft | 175 kts | 138° |
| 2026-04-23 15:22 | 62.73443 | -154.70338 | 5581 ft | 176 kts | 131° |
| 2026-04-23 15:22 | 62.72651 | -154.68288 | 5511 ft | 179 kts | 122° |
| 2026-04-23 15:22 | 62.72023 | -154.65990 | 5485 ft | 179 kts | 112° |
| 2026-04-23 15:22 | 62.71584 | -154.63515 | 5533 ft | 175 kts | 103° |
| 2026-04-23 15:23 | 62.71343 | -154.60938 | 5608 ft | 170 kts | 94° |
| 2026-04-23 15:23 | 62.71315 | -154.58421 | 5825 ft | 161 kts | 84° |
| 2026-04-23 15:23 | 62.71522 | -154.56137 | 6123 ft | 154 kts | 72° |
| 2026-04-23 15:23 | 62.72004 | -154.54005 | 6181 ft | 162 kts | 58° |
| 2026-04-23 15:24 | 62.72771 | -154.52119 | 6202 ft | 169 kts | 44° |
| 2026-04-23 15:24 | 62.73391 | -154.51115 | 6210 ft | 173 kts | 35° |
| 2026-04-23 15:24 | 62.74298 | -154.50119 | 6213 ft | 177 kts | 25° |
| 2026-04-23 15:24 | 62.75508 | -154.49405 | 6231 ft | 181 kts | 13° |
| 2026-04-23 15:25 | 62.76772 | -154.49194 | 6246 ft | 183 kts | 6° |
| 2026-04-23 15:25 | 62.78059 | -154.49217 | 6242 ft | 185 kts | 3° |
| 2026-04-23 15:25 | 62.79330 | -154.49295 | 6258 ft | 186 kts | 3° |
| 2026-04-23 15:25 | 62.80612 | -154.49347 | 6328 ft | 181 kts | 4° |
| 2026-04-23 15:26 | 62.81903 | -154.49330 | 6293 ft | 183 kts | 6° |
| 2026-04-23 15:26 | 62.83172 | -154.49225 | 6268 ft | 185 kts | 8° |
| 2026-04-23 15:26 | 62.84436 | -154.49008 | 6347 ft | 180 kts | 10° |
| 2026-04-23 15:26 | 62.85705 | -154.48679 | 6300 ft | 182 kts | 12° |
| 2026-04-23 15:27 | 62.86926 | -154.48235 | 6537 ft | 168 kts | 18° |
| 2026-04-23 15:27 | 62.88022 | -154.47577 | 6782 ft | 166 kts | 18° |
| 2026-04-23 15:27 | 62.89237 | -154.47311 | 6749 ft | 179 kts | 2° |
| 2026-04-23 15:27 | 62.90501 | -154.48030 | 6527 ft | 200 kts | 339° |
| 2026-04-23 15:28 | 62.91599 | -154.49649 | 6834 ft | 184 kts | 327° |
| 2026-04-23 15:28 | 62.92654 | -154.51576 | 6472 ft | 206 kts | 322° |
| 2026-04-23 15:28 | 62.93771 | -154.53798 | 5558 ft | 234 kts | 324° |
| 2026-04-23 15:28 | 62.95003 | -154.56270 | 4789 ft | 236 kts | 313° |
| 2026-04-23 15:29 | 62.95754 | -154.59363 | 4350 ft | 233 kts | 285° |
| 2026-04-23 15:29 | 62.95833 | -154.62981 | 3772 ft | 232 kts | 269° |
| 2026-04-23 15:29 | 62.95937 | -154.66318 | 3806 ft | 211 kts | 284° |
| 2026-04-23 15:29 | 62.96288 | -154.69493 | 3540 ft | 213 kts | 288° |
| 2026-04-23 15:30 | 62.96676 | -154.72635 | 3207 ft | 217 kts | 279° |
| 2026-04-23 15:30 | 62.95872 | -154.75000 | 2893 ft | 209 kts | 196° |
| 2026-04-23 15:30 | 62.94544 | -154.76183 | 2665 ft | 214 kts | 218° |
| 2026-04-23 15:30 | 62.94212 | -154.79222 | 2184 ft | 216 kts | 289° |
| 2026-04-23 15:31 | 62.94848 | -154.82121 | 2128 ft | 200 kts | 304° |
| 2026-04-23 15:31 | 62.95678 | -154.84430 | 2327 ft | 184 kts | 314° |
| 2026-04-23 15:31 | 62.96511 | -154.86673 | 2283 ft | 189 kts | 310° |
| 2026-04-23 15:31 | 62.97353 | -154.88829 | 2327 ft | 188 kts | 314° |
| 2026-04-23 15:32 | 62.98237 | -154.90965 | 2256 ft | 175 kts | 313° |
| 2026-04-23 15:32 | 62.98992 | -154.92894 | 1881 ft | 168 kts | 312° |
| 2026-04-23 15:32 | 62.99706 | -154.94788 | 1936 ft | 148 kts | 305° |
| 2026-04-23 15:32 | 63.00082 | -154.96924 | 1737 ft | 156 kts | 281° |
| 2026-04-23 15:33 | 63.00121 | -154.99371 | 1577 ft | 153 kts | 265° |
| 2026-04-23 15:33 | 63.00010 | -155.00862 | 2551 ft | 59 kts | 258° |
| 2026-04-23 15:33 | 62.99867 | -155.02222 | 2429 ft | 96 kts | 261° |
| 2026-04-23 15:33 | 62.99755 | -155.03792 | 2276 ft | 127 kts | 264° |
| 2026-04-23 15:34 | 62.99731 | -155.05843 | 2206 ft | 153 kts | 274° |
| 2026-04-23 15:34 | 62.99945 | -155.08382 | 1959 ft | 172 kts | 286° |
| 2026-04-23 15:34 | 63.00368 | -155.10965 | 1967 ft | 179 kts | 297° |
| 2026-04-23 15:34 | 63.00767 | -155.13480 | 2327 ft | 169 kts | 281° |
| 2026-04-23 15:35 | 63.00718 | -155.16145 | 2403 ft | 179 kts | 259° |
| 2026-04-23 15:35 | 63.00440 | -155.18811 | 2632 ft | 174 kts | 259° |
| 2026-04-23 15:35 | 63.00145 | -155.21445 | 2834 ft | 175 kts | 257° |
| 2026-04-23 15:35 | 62.99868 | -155.24101 | 2928 ft | 179 kts | 261° |
| 2026-04-23 15:36 | 62.99771 | -155.26854 | 3098 ft | 179 kts | 271° |
| 2026-04-23 15:36 | 62.99812 | -155.29623 | 3198 ft | 179 kts | 271° |
| 2026-04-23 15:36 | 62.99691 | -155.32352 | 3470 ft | 174 kts | 266° |
| 2026-04-23 15:36 | 62.99635 | -155.35036 | 3619 ft | 177 kts | 270° |
| 2026-04-23 15:37 | 62.99596 | -155.37787 | 3763 ft | 178 kts | 270° |
| 2026-04-23 15:37 | 62.99552 | -155.40558 | 3787 ft | 184 kts | 271° |
| 2026-04-23 15:37 | 62.99497 | -155.43343 | 4063 ft | 176 kts | 266° |
| 2026-04-23 15:37 | 62.99235 | -155.46066 | 3985 ft | 190 kts | 257° |
| 2026-04-23 15:38 | 62.98896 | -155.48962 | 3954 ft | 190 kts | 251° |
| 2026-04-23 15:38 | 62.98444 | -155.51608 | 4045 ft | 189 kts | 255° |
| 2026-04-23 15:38 | 62.98390 | -155.54501 | 3980 ft | 193 kts | 284° |
| 2026-04-23 15:38 | 62.98902 | -155.57205 | 4088 ft | 181 kts | 305° |
| 2026-04-23 15:39 | 62.99686 | -155.59189 | 4332 ft | 177 kts | 316° |
| 2026-04-23 15:39 | 63.00682 | -155.61150 | 3999 ft | 192 kts | 322° |
| 2026-04-23 15:39 | 63.01916 | -155.61731 | 3578 ft | 205 kts | 24° |
| 2026-04-23 15:39 | 63.02392 | -155.59170 | 2516 ft | 209 kts | 120° |
| 2026-04-23 15:40 | 63.01224 | -155.57684 | 2112 ft | 174 kts | 167° |
| 2026-04-23 15:40 | 63.00097 | -155.57455 | 2005 ft | 148 kts | 179° |
| 2026-04-23 15:40 | 62.99182 | -155.57083 | 2022 ft | 127 kts | 163° |
| 2026-04-23 15:40 | 62.98358 | -155.56291 | 1893 ft | 139 kts | 148° |
| 2026-04-23 15:41 | 62.97519 | -155.55186 | 2020 ft | 136 kts | 169° |
| 2026-04-23 15:41 | 62.96941 | -155.56537 | 1658 ft | 180 kts | 294° |
| 2026-04-23 15:41 | 62.97720 | -155.58611 | 1832 ft | 174 kts | 315° |
| 2026-04-23 15:41 | 62.98031 | -155.60934 | 2121 ft | 172 kts | 254° |
| 2026-04-23 15:42 | 62.96945 | -155.62329 | 1500 ft | 199 kts | 178° |
| 2026-04-23 15:42 | 62.95887 | -155.60912 | 1570 ft | 156 kts | 166° |
| 2026-04-23 15:42 | 62.94805 | -155.61244 | 1248 ft | 160 kts | 198° |
| 2026-04-23 15:42 | 62.93877 | -155.62315 | 1327 ft | 141 kts | 217° |
| 2026-04-23 15:43 | 62.93058 | -155.63548 | 1256 ft | 139 kts | 205° |
| 2026-04-23 15:43 | 62.92160 | -155.63232 | 1186 ft | 141 kts | 144° |
| 2026-04-23 15:43 | 62.91548 | -155.61635 | 1252 ft | 131 kts | 118° |
| 2026-04-23 15:43 | 62.91692 | -155.59711 | 829 ft | 152 kts | 31° |
| 2026-04-23 15:44 | 62.92668 | -155.60066 | 787 ft | 142 kts | 347° |
| 2026-04-23 15:44 | 62.93466 | -155.60338 | 540 ft | 131 kts | 355° |
| 2026-04-23 15:44 | 62.94326 | -155.60466 | 371 ft | 115 kts | 0° |
| 2026-04-23 15:44 | 62.95043 | -155.60498 | 342 ft | 86 kts | 1° |
| 2026-04-23 15:45 | 62.95521 | -155.60524 | 342 ft | 52 kts | 1° |
| 2026-04-23 15:45 | 62.95795 | -155.60536 | 342 ft | 27 kts | 6° |
| 2026-04-23 15:45 | 62.95857 | -155.60367 | 342 ft | 6 kts | 27° |
| 2026-04-23 15:45 | 62.95871 | -155.60271 | 342 ft | 8 kts | 99° |
| 2026-04-23 15:46 | 62.95869 | -155.60225 | 342 ft | 9 kts | 97° |
| 2026-04-23 15:46 | 62.95861 | -155.60086 | 342 ft | 13 kts | 97° |
| 2026-04-23 15:46 | 62.95828 | -155.59882 | 342 ft | 14 kts | 84° |
| 2026-04-23 15:46 | 62.95829 | -155.59659 | 342 ft | 15 kts | 90° |
| 2026-04-23 15:47 | 62.95829 | -155.59555 | 342 ft | 0 kts | 91° |